Latest Weather Observations for Forrest

IDW60801

Issued at 4:35 pm WST Thursday 28 August 2014 (issued every 30 minutes, with the page automatically refreshed every 10 minutes)

About weather observations | Map of weather stations | Latest weather observations for WA | Other Formats
Station Details ID: 011052 Name: FORREST Lat: -30.85 Lon: 128.11 Height: 159.0 m
Data from the previous 72 hours. | See also: Recent months at Forrest
Date/Time
WST
Temp
°C
App
Temp
°C
Dew
Point
Rel
Hum
%
Delta-T
°C
Wind Press
QNH
hPa
Press
MSL
hPa
Rain
since 9 am
mm
Dir
 
Spd
km/h
Gust
km/h
Spd
kts
Gust
kts
28/04:31pm 28.2 20.7 -9.1 8 15.0 N 24 33 13 18 1017.7 - 0.0
28/04:01pm 29.0 21.0 -10.2 7 15.6 NNE 26 35 14 19 1017.7 - 0.0
28/03:31pm 29.5 21.5 -9.9 7 15.9 NNE 26 35 14 19 1017.7 - 0.0
28/03:01pm 29.9 21.6 -9.6 7 16.1 NNE 28 37 15 20 1017.6 - 0.0
28/03:00pm 29.9 21.6 -9.6 7 16.0 NNE 28 - 15 - - 1017.7 0.0
28/02:35pm 29.8 21.1 -9.7 7 16.0 N 30 48 16 26 1017.7 - 0.0
28/02:31pm 30.0 21.3 -9.5 7 16.1 N 30 46 16 25 1017.8 - 0.0
28/02:25pm 30.0 21.7 -9.5 7 16.1 N 28 46 15 25 1017.8 - 0.0
28/02:01pm 30.1 21.8 -9.4 7 16.2 N 28 43 15 23 1018.0 - 0.0
28/01:31pm 30.2 21.1 -9.4 7 16.2 N 32 41 17 22 1018.4 - 0.0
28/01:01pm 29.7 20.4 -9.7 7 16.0 NNE 33 43 18 23 1018.7 - 0.0
28/12:31pm 29.7 20.4 -9.7 7 16.0 NNE 33 48 18 26 1019.1 - 0.0
28/12:01pm 29.8 20.1 -9.7 7 16.0 N 35 46 19 25 1019.5 - 0.0
28/12:00pm 29.8 20.1 -9.7 7 16.0 NNE 35 - 19 - - 1019.5 -
28/11:31am 29.5 19.4 -9.9 7 15.9 N 37 48 20 26 1020.0 - 0.0
28/11:01am 28.8 18.8 -8.7 8 15.3 N 37 46 20 25 1020.6 - 0.0
28/10:31am 28.0 17.6 -9.3 8 15.0 N 39 48 21 26 1021.1 - 0.0
28/10:01am 27.1 17.9 -8.5 9 14.4 N 33 44 18 24 1021.7 - 0.0
28/09:31am 26.1 17.1 -7.9 10 13.7 N 32 44 17 24 1022.0 - 0.0
28/09:01am 25.2 16.1 -7.3 11 13.1 N 33 41 18 22 1022.1 - 0.0
28/09:00am 25.2 16.1 -7.3 11 13.1 N 33 - 18 - - 1022.2 0.0
28/08:31am 23.1 15.1 -5.8 14 11.8 NNE 28 39 15 21 1022.3 - 0.0
28/08:01am 20.0 12.2 -3.6 20 9.8 NNE 28 37 15 20 1022.4 - 0.0
28/07:31am 16.1 11.1 -1.5 30 7.3 NNE 15 20 8 11 1022.4 - 0.0
28/07:01am 11.5 6.6 -0.6 43 4.9 NE 15 20 8 11 1022.3 - 0.0
28/06:31am 8.9 5.1 -0.4 52 3.7 NE 9 11 5 6 1022.5 - 0.0
28/06:01am 6.4 1.8 -1.2 58 2.9 NE 13 15 7 8 1022.4 - 0.0
28/06:00am 6.4 1.8 -1.2 58 2.9 ENE 13 - 7 - - 1022.5 -
28/05:31am 6.3 1.7 -1.3 58 2.9 NE 13 15 7 8 1021.9 - 0.0
28/05:01am 6.3 2.0 -1.3 58 2.9 NE 11 13 6 7 1021.8 - 0.0
28/04:31am 6.6 2.0 -0.8 59 2.8 NE 13 15 7 8 1021.7 - 0.0
28/04:01am 6.3 2.1 -0.9 60 2.7 ENE 11 13 6 7 1021.6 - 0.0
28/03:31am 6.4 2.2 -1.2 58 2.9 E 11 13 6 7 1021.4 - 0.0
28/03:01am 7.4 3.3 -0.5 57 3.1 E 11 13 6 7 1021.4 - 0.0
28/03:00am 7.4 3.3 -0.5 57 3.1 E 11 - 6 - - 1021.4 0.0
28/02:31am 8.7 4.2 -0.1 54 3.5 E 13 15 7 8 1021.6 - 0.0
28/02:01am 8.6 4.5 -0.2 54 3.5 E 11 13 6 7 1021.6 - 0.0
28/01:31am 9.2 4.8 0.1 53 3.7 E 13 15 7 8 1021.8 - 0.0
28/01:01am 9.7 5.3 0.3 52 3.8 ENE 13 15 7 8 1021.9 - 0.0
28/12:31am 10.3 5.9 0.3 50 4.1 E 13 15 7 8 1022.2 - 0.0
28/12:01am 11.5 6.8 0.9 48 4.5 E 15 17 8 9 1022.1 - 0.0
28/12:00am 11.5 6.8 0.9 48 4.4 E 15 17 8 9 1022.1 1022.2 -
 
Date/Time
WST
Temp
°C
App
Temp
°C
Dew
Point
Rel
Hum
%
Delta-T
°C
Wind Press
QNH
hPa
Press
MSL
hPa
Rain
since 9 am
mm
Dir
 
Spd
km/h
Gust
km/h
Spd
kts
Gust
kts
27/11:31pm 11.5 6.8 0.9 48 4.5 E 15 17 8 9 1022.3 - 0.0
27/11:01pm 11.5 7.1 0.3 46 4.6 E 13 17 7 9 1022.5 - 0.0
27/10:31pm 12.4 7.3 0.5 44 5.0 E 17 20 9 11 1022.6 - 0.0
27/10:01pm 13.2 8.0 -0.1 40 5.6 E 17 20 9 11 1022.9 - 0.0
27/09:31pm 13.8 8.1 -0.6 37 6.0 ESE 19 20 10 11 1023.1 - 0.0
27/09:01pm 14.4 9.6 -0.1 37 6.1 ESE 15 20 8 11 1023.4 - 0.0
27/09:00pm 14.4 9.6 -0.1 37 6.1 ESE 15 - 8 - - 1023.5 0.0
27/08:31pm 16.3 10.8 0.4 34 6.9 ESE 19 22 10 12 1023.3 - 0.0
27/08:01pm 16.8 11.8 1.3 35 6.9 ESE 17 22 9 12 1023.2 - 0.0
27/07:31pm 17.0 11.8 -0.2 31 7.4 ESE 17 20 9 11 1022.9 - 0.0
27/07:01pm 18.0 12.1 -5.3 20 9.1 ESE 17 20 9 11 1022.7 - 0.0
27/06:31pm 20.9 14.3 -2.9 20 10.1 E 22 28 12 15 1022.2 - 0.0
27/06:01pm 21.1 14.9 -8.4 13 11.2 E 17 19 9 10 1021.7 - 0.0
27/06:00pm 21.1 14.9 -8.4 13 11.2 E 17 - 9 - - 1021.7 -
27/05:31pm 22.9 16.8 -8.0 12 12.1 E 17 20 9 11 1021.4 - 0.0
27/05:01pm 25.7 19.1 -9.5 9 13.8 E 19 24 10 13 1021.0 - 0.0
27/04:31pm 27.8 20.2 -9.4 8 14.9 E 24 30 13 16 1020.8 - 0.0
27/04:01pm 28.7 20.8 -8.8 8 15.3 E 26 39 14 21 1020.7 - 0.0
27/03:31pm 29.6 21.8 -8.1 8 15.7 ENE 26 35 14 19 1020.5 - 0.0
27/03:01pm 29.7 22.6 -8.0 8 15.7 ENE 22 33 12 18 1020.6 - 0.0
27/03:00pm 29.7 22.6 -8.0 8 15.7 ENE 22 - 12 - - 1020.6 0.0
27/02:31pm 29.7 22.2 -8.0 8 15.7 E 24 39 13 21 1020.8 - 0.0
27/02:01pm 29.7 21.9 -8.0 8 15.7 ENE 26 35 14 19 1021.0 - 0.0
27/01:31pm 29.4 21.9 -8.2 8 15.6 E 24 37 13 20 1021.1 - 0.0
27/01:01pm 29.6 22.5 -8.1 8 15.7 E 22 30 12 16 1021.3 - 0.0
27/12:31pm 29.4 22.4 -6.7 9 15.4 ENE 22 30 12 16 1021.5 - 0.0
27/12:01pm 28.4 21.4 -7.5 9 14.9 E 22 26 12 14 1022.1 - 0.0
27/12:00pm 28.4 21.4 -7.5 9 14.9 E 22 - 12 - - 1022.2 -
27/11:31am 27.2 22.8 -2.6 14 13.4 SE 11 22 6 12 1022.7 - 0.0
27/11:01am 25.9 22.1 -1.0 17 12.3 SE 9 15 5 8 1023.3 - 0.0
27/10:31am 25.0 20.5 -0.2 19 11.6 SE 13 19 7 10 1023.7 - 0.0
27/10:01am 22.8 17.7 0.6 23 10.2 S 17 24 9 13 1024.0 - 0.0
27/09:31am 21.5 16.8 0.7 25 9.5 SSE 15 20 8 11 1024.2 - 0.0
27/09:01am 20.1 16.2 1.0 28 8.7 SSE 11 17 6 9 1024.2 - 0.0
27/09:00am 20.1 16.2 1.0 28 8.6 SSE 11 - 6 - - 1024.3 0.0
27/08:31am 18.2 13.6 1.3 32 7.6 S 15 24 8 13 1024.1 - 0.0
27/08:01am 17.1 14.0 1.5 35 7.0 N 7 24 4 13 1023.9 - 0.0
27/07:31am 15.7 11.5 1.8 39 6.2 NNE 13 17 7 9 1023.2 - 0.0
27/07:01am 13.0 8.9 2.5 49 4.6 NNE 13 17 7 9 1023.1 - 0.0
27/06:31am 8.6 3.8 0.3 56 3.3 NE 15 17 8 9 1022.8 - 0.0
27/06:01am 8.4 5.2 0.9 59 3.1 ENE 7 7 4 4 1022.7 - 0.0
27/06:00am 8.4 5.2 0.9 59 3.0 ENE 7 - 4 - - 1022.8 -
27/05:31am 8.1 6.1 0.1 57 3.2 CALM 0 0 0 0 1022.5 - 0.0
27/05:01am 8.4 6.4 0.1 56 3.3 CALM 0 6 0 3 1022.2 - 0.0
27/04:31am 8.6 5.0 0.3 56 3.3 ENE 9 9 5 5 1022.0 - 0.0
27/04:01am 9.4 5.3 0.1 52 3.8 E 11 13 6 7 1021.7 - 0.0
27/03:31am 9.3 4.5 0.0 52 3.7 NE 15 17 8 9 1021.5 - 0.0
27/03:01am 9.6 5.1 -0.3 50 4.0 ENE 13 13 7 7 1021.5 - 0.0
27/03:00am 9.6 5.1 -0.3 50 4.0 ENE 13 - 7 - - 1021.5 0.0
27/02:31am 10.9 5.7 0.0 47 4.5 E 17 17 9 9 1021.6 - 0.0
27/02:01am 10.9 6.4 0.0 47 4.5 E 13 15 7 8 1021.9 - 0.0
27/01:31am 10.5 6.5 0.3 49 4.2 ENE 11 13 6 7 1021.9 - 0.0
27/01:01am 10.9 5.7 0.3 48 4.4 ENE 17 17 9 9 1021.9 - 0.0
27/12:31am 11.6 7.2 0.4 46 4.7 ENE 13 15 7 8 1022.0 - 0.0
27/12:01am 12.3 8.7 0.7 45 4.9 NE 9 13 5 7 1022.1 - 0.0
27/12:00am 12.3 8.7 0.7 45 4.9 ENE 9 - 5 - - 1022.2 -
 
Date/Time
WST
Temp
°C
App
Temp
°C
Dew
Point
Rel
Hum
%
Delta-T
°C
Wind Press
QNH
hPa
Press
MSL
hPa
Rain
since 9 am
mm
Dir
 
Spd
km/h
Gust
km/h
Spd
kts
Gust
kts
26/11:31pm 12.3 7.9 0.1 43 5.1 NE 13 17 7 9 1022.1 - 0.0
26/11:01pm 12.5 7.6 -0.4 41 5.3 ENE 15 17 8 9 1022.1 - 0.0
26/10:31pm 13.0 8.1 -0.6 39 5.6 ENE 15 17 8 9 1022.2 - 0.0
26/10:01pm 12.9 7.9 -1.1 38 5.7 ENE 15 17 8 9 1022.1 - 0.0
26/09:31pm 14.0 9.5 -0.4 37 6.0 ENE 13 15 7 8 1022.1 - 0.0
26/09:01pm 14.9 10.4 -0.4 35 6.5 ENE 13 15 7 8 1022.1 - 0.0
26/09:00pm 14.9 10.4 -0.4 35 6.4 E 13 - 7 - - 1022.2 0.0
26/08:31pm 16.1 10.8 -0.6 32 7.1 E 17 19 9 10 1022.2 - 0.0
26/08:01pm 17.5 12.2 -0.7 29 7.8 E 17 20 9 11 1022.1 - 0.0
26/07:31pm 17.8 11.9 -2.5 25 8.4 E 19 20 10 11 1022.1 - 0.0
26/07:01pm 21.2 15.1 -4.0 18 10.5 ESE 19 24 10 13 1022.1 - 0.0
26/06:31pm 19.9 14.6 -3.7 20 9.7 ESE 15 17 8 9 1021.7 - 0.0
26/06:01pm 20.3 15.4 -3.4 20 9.9 ESE 13 17 7 9 1021.4 - 0.0
26/06:00pm 20.3 15.4 -3.4 20 9.8 ESE 13 - 7 - - 1021.4 -
26/05:31pm 23.1 18.5 -4.1 16 11.5 SE 11 11 6 6 1021.2 - 0.0
26/05:01pm 25.4 21.1 -5.0 13 12.9 ESE 9 9 5 5 1020.9 - 0.0
26/04:31pm 27.6 22.9 -5.5 11 14.2 SE 11 15 6 8 1020.8 - 0.0
26/04:01pm 28.3 23.9 -6.2 10 14.7 SSE 9 15 5 8 1020.6 - 0.0
26/03:31pm 29.0 24.2 -5.7 10 15.0 ESE 11 17 6 9 1020.5 - 0.0
26/03:01pm 29.5 25.2 -5.3 10 15.2 SSW 9 15 5 8 1020.3 - 0.0
26/03:00pm 29.5 25.2 -5.3 10 15.2 SSW 9 - 5 - - 1020.3 0.0
26/02:31pm 29.5 25.5 -5.3 10 15.2 SE 7 15 4 8 1020.5 - 0.0
26/02:01pm 29.5 24.0 -5.3 10 15.2 ESE 15 22 8 12 1020.4 - 0.0
26/01:31pm 29.5 25.5 -5.3 10 15.2 SE 7 11 4 6 1020.8 - 0.0
26/01:01pm 29.9 26.3 -3.7 11 15.1 N 6 15 3 8 1021.1 - 0.0
26/12:31pm 29.2 24.5 -5.5 10 15.1 ENE 11 20 6 11 1021.5 - 0.0
26/12:01pm 28.9 24.3 -4.5 11 14.7 NE 11 19 6 10 1021.9 - 0.0
26/12:00pm 28.9 24.3 -4.5 11 14.7 NE 11 - 6 - - 1022.0 -
26/11:31am 29.0 24.5 -3.2 12 14.5 N 11 19 6 10 1022.3 - 0.0
26/11:01am 28.2 23.5 -1.8 14 13.8 NNW 13 19 7 10 1022.7 - 0.0
26/10:31am 27.5 22.6 -3.3 13 13.7 N 13 19 7 10 1023.2 - 0.0
26/10:01am 26.4 21.5 -0.6 17 12.5 N 15 20 8 11 1023.5 - 0.0
26/09:31am 24.7 20.0 0.9 21 11.2 N 15 20 8 11 1024.0 - 0.0
26/09:01am 22.9 18.8 2.4 26 9.8 N 13 17 7 9 1024.3 - 0.0
26/09:00am 22.9 18.8 2.4 26 9.7 N 13 - 7 - - 1024.4 0.0
26/08:31am 20.9 16.9 2.7 30 8.6 N 13 17 7 9 1024.4 - 0.0
26/08:01am 18.5 14.1 2.8 35 7.3 N 15 19 8 10 1024.7 - 0.0
26/07:31am 16.6 12.2 2.6 39 6.4 N 15 19 8 10 1024.5 - 0.0
26/07:01am 14.4 10.0 2.6 45 5.3 N 15 20 8 11 1024.2 - 0.0
26/06:31am 11.8 6.9 2.0 51 4.2 NNE 17 20 9 11 1023.8 - 0.0
26/06:01am 10.0 4.7 1.6 56 3.5 NNE 19 22 10 12 1023.6 - 0.0
26/06:00am 10.0 4.7 1.6 56 3.5 NNE 19 - 10 - - 1023.7 -
26/05:31am 9.9 4.5 1.3 55 3.6 NNE 19 20 10 11 1023.6 - 0.0
26/05:01am 10.3 4.9 1.4 54 3.7 NNE 19 24 10 13 1023.3 - 0.0
26/04:31am 10.3 4.9 1.4 54 3.7 NE 19 20 10 11 1023.1 - 0.0
26/04:01am 9.9 4.4 0.8 53 3.8 NE 19 24 10 13 1023.1 - 0.0
26/03:31am 9.3 4.9 0.5 54 3.6 NE 13 15 7 8 1023.3 - 0.0
26/03:01am 9.1 5.0 0.0 53 3.7 NNE 11 15 6 8 1023.6 - 0.0
26/03:00am 9.1 5.0 0.0 53 3.6 NNE 11 - 6 - - 1023.7 0.0
26/02:31am 8.5 4.0 -0.3 54 3.5 NE 13 15 7 8 1023.8 - 0.0
26/02:01am 9.5 4.7 0.1 52 3.8 NE 15 15 8 8 1023.8 - 0.0
26/01:31am 10.6 7.0 0.3 49 4.2 NNE 9 11 5 6 1024.0 - 0.0
26/01:01am 10.9 6.5 0.3 48 4.4 NNE 13 19 7 10 1024.1 - 0.0
26/12:31am 11.2 7.2 0.3 47 4.5 NNE 11 17 6 9 1024.6 - 0.0
26/12:01am 11.8 7.1 0.6 46 4.7 N 15 17 8 9 1024.9 - 0.0
26/12:00am 11.8 7.1 0.6 46 4.7 N 15 - 8 - - 1024.9 -
 
Date/Time
WST
Temp
°C
App
Temp
°C
Dew
Point
Rel
Hum
%
Delta-T
°C
Wind Press
QNH
hPa
Press
MSL
hPa
Rain
since 9 am
mm
Dir
 
Spd
km/h
Gust
km/h
Spd
kts
Gust
kts
25/11:31pm 11.7 6.9 0.5 46 4.7 NNE 15 15 8 8 1024.9 - 0.0
25/11:01pm 13.0 9.1 1.0 44 5.1 NNE 11 13 6 7 1025.1 - 0.0
25/10:31pm 13.1 8.9 1.5 45 5.0 NNE 13 15 7 8 1025.1 - 0.0
25/10:01pm 13.2 8.5 1.2 44 5.2 NE 15 17 8 9 1025.2 - 0.0
25/09:31pm 14.4 9.7 1.0 40 5.8 ENE 15 17 8 9 1025.5 - 0.0
25/09:01pm 15.7 10.7 1.1 37 6.4 ENE 17 20 9 11 1025.6 - 0.0
25/09:00pm 15.7 10.7 1.1 37 6.4 ENE 17 - 9 - - 1025.6 0.0
25/08:31pm 16.2 11.1 0.7 35 6.8 ENE 17 20 9 11 1025.6 - 0.0
25/08:01pm 15.1 10.3 0.2 36 6.4 ENE 15 17 8 9 1025.7 - 0.0
25/07:31pm 16.1 11.3 0.3 34 6.8 ENE 15 15 8 8 1025.5 - 0.0
25/07:01pm 18.2 12.7 0.8 31 7.8 E 19 20 10 11 1025.3 - 0.0
25/06:31pm 18.7 13.6 0.8 30 8.0 E 17 19 9 10 1025.1 - 0.0
25/06:01pm 20.4 14.8 1.3 28 8.8 E 20 20 11 11 1024.9 - 0.0
25/06:00pm 20.4 14.8 1.3 28 8.7 E 20 - 11 - - 1024.9 -
25/05:31pm 21.8 16.8 1.5 26 9.4 E 17 19 9 10 1024.5 - 0.0
25/05:01pm 24.6 19.9 0.8 21 11.2 ENE 15 17 8 9 1024.1 - 0.0

Other Formats:

Comma delimited format used in spreadsheet applications
http://www.bom.gov.au/fwo/IDW60801/IDW60801.95646.axf

JavaScript Object Notation format (JSON) in row-major order
http://www.bom.gov.au/fwo/IDW60801/IDW60801.95646.json